Time;durP1;ratioP1;P1;durP2;ratioP2;P2;SDS_P1;SDS_P2;PMS_P1;PMS_P2;Temp;Humidity;BMP_temperature;BMP_pressure;BME280_temperature;BME280_humidity;BME280_pressure;Samples;Min_cycle;Max_cycle;Signal;HPM_P1;HPM_P2
2023/11/27 00:00:29;;;;;;;15.55;8.70;;;;;;;;;;4995921;28;20030;-76
2023/11/27 00:02:55;;;;;;;10.30;5.55;;;;;;;;;;4996156;28;20038;-80
2023/11/27 00:05:22;;;;;;;11.43;7.28;;;;;;;;;;5014000;28;20364;-74
2023/11/27 00:07:47;;;;;;;13.95;7.63;;;;;;;;;;5012485;28;20080;-73
2023/11/27 00:10:13;;;;;;;11.70;6.85;;;;;;;;;;4995861;28;20030;-77
2023/11/27 00:12:39;;;;;;;12.80;7.43;;;;;;;;;;5013723;28;20100;-76
2023/11/27 00:15:04;;;;;;;13.00;7.53;;;;;;;;;;5013444;28;20472;-76
2023/11/27 00:17:30;;;;;;;12.30;6.93;;;;;;;;;;4996307;28;20522;-76
2023/11/27 00:19:55;;;;;;;15.07;7.25;;;;;;;;;;5013412;28;20080;-76
2023/11/27 00:22:20;;;;;;;13.20;7.22;;;;;;;;;;5013361;28;20079;-77
2023/11/27 00:24:46;;;;;;;12.30;7.07;;;;;;;;;;5013760;28;20061;-74
2023/11/27 00:27:11;;;;;;;10.35;7.03;;;;;;;;;;5000056;28;20034;-73
2023/11/27 00:29:37;;;;;;;11.13;6.57;;;;;;;;;;4999336;28;20037;-72
2023/11/27 00:32:03;;;;;;;10.82;6.53;;;;;;;;;;5017276;28;20026;-79
2023/11/27 00:34:29;;;;;;;12.15;6.35;;;;;;;;;;5000197;28;20040;-80
2023/11/27 00:36:54;;;;;;;12.45;7.03;;;;;;;;;;5017098;28;20034;-76
2023/11/27 00:39:20;;;;;;;12.85;6.95;;;;;;;;;;4999160;28;20116;-76
2023/11/27 00:41:45;;;;;;;11.77;6.72;;;;;;;;;;5015455;28;20092;-77
2023/11/27 00:44:10;;;;;;;11.60;6.80;;;;;;;;;;4982946;28;20030;-77
2023/11/27 00:46:36;;;;;;;14.35;6.68;;;;;;;;;;5016889;28;20184;-76
2023/11/27 00:49:01;;;;;;;13.48;7.57;;;;;;;;;;4998996;28;20022;-76
2023/11/27 00:51:27;;;;;;;12.88;7.05;;;;;;;;;;5016503;28;20030;-81
2023/11/27 00:53:52;;;;;;;11.65;6.63;;;;;;;;;;4999837;28;20017;-80
2023/11/27 00:56:18;;;;;;;12.10;6.22;;;;;;;;;;4982654;28;20033;-77
2023/11/27 00:58:44;;;;;;;8.60;6.20;;;;;;;;;;5016536;28;20022;-76
2023/11/27 01:01:09;;;;;;;11.82;6.78;;;;;;;;;;5016272;28;20084;-76
2023/11/27 01:03:36;;;;;;;11.18;6.60;;;;;;;;;;5016592;28;20037;-76
2023/11/27 01:06:01;;;;;;;10.77;6.78;;;;;;;;;;4998685;28;20029;-76
2023/11/27 01:08:27;;;;;;;9.52;6.18;;;;;;;;;;5016229;28;20157;-76
2023/11/27 01:10:52;;;;;;;11.27;6.75;;;;;;;;;;5016828;28;20468;-76
2023/11/27 01:13:18;;;;;;;8.23;5.72;;;;;;;;;;4982369;28;20034;-75
2023/11/27 01:15:43;;;;;;;9.70;5.30;;;;;;;;;;5014836;28;20037;-75
2023/11/27 01:18:09;;;;;;;9.38;6.35;;;;;;;;;;4998841;28;20108;-76
2023/11/27 01:20:34;;;;;;;8.35;5.57;;;;;;;;;;4998360;28;20484;-84
2023/11/27 01:22:59;;;;;;;10.50;6.22;;;;;;;;;;4998472;28;20026;-75
2023/11/27 01:25:25;;;;;;;8.82;5.80;;;;;;;;;;4998350;28;20018;-76
2023/11/27 01:27:51;;;;;;;9.70;6.03;;;;;;;;;;5016171;28;20026;-75
2023/11/27 01:30:18;;;;;;;5.65;4.55;;;;;;;;;;4998661;28;20388;-75
2023/11/27 01:32:44;;;;;;;8.32;5.38;;;;;;;;;;4998288;28;20026;-76
2023/11/27 01:35:09;;;;;;;8.63;5.53;;;;;;;;;;5015589;28;20041;-74
2023/11/27 01:37:35;;;;;;;7.72;5.15;;;;;;;;;;5015695;28;20034;-74
2023/11/27 01:40:00;;;;;;;8.40;5.38;;;;;;;;;;4998093;28;20030;-74
2023/11/27 01:42:26;;;;;;;6.95;5.53;;;;;;;;;;5015916;28;20141;-74
2023/11/27 01:44:51;;;;;;;9.88;5.78;;;;;;;;;;5015541;28;20046;-76
2023/11/27 01:47:17;;;;;;;8.52;5.25;;;;;;;;;;4997916;28;20037;-77
2023/11/27 01:49:44;;;;;;;8.55;5.20;;;;;;;;;;5016079;28;20034;-79
2023/11/27 01:52:10;;;;;;;7.45;5.13;;;;;;;;;;4997962;28;20046;-77
2023/11/27 01:54:40;;;;;;;8.02;5.40;;;;;;;;;;5015633;28;20025;-76
2023/11/27 01:57:07;;;;;;;7.88;5.35;;;;;;;;;;5015650;28;20033;-76
2023/11/27 01:59:33;;;;;;;8.23;5.10;;;;;;;;;;5014221;28;20464;-75
2023/11/27 02:01:59;;;;;;;7.18;5.07;;;;;;;;;;5014266;28;20022;-76
2023/11/27 02:04:26;;;;;;;9.13;5.40;;;;;;;;;;5013947;28;20026;-75
2023/11/27 02:06:51;;;;;;;7.60;5.07;;;;;;;;;;4997556;28;20109;-75
2023/11/27 02:09:17;;;;;;;7.38;5.07;;;;;;;;;;4997563;28;20128;-75
2023/11/27 02:11:49;;;;;;;7.38;5.55;;;;;;;;;;4997453;28;20034;-75
2023/11/27 02:14:16;;;;;;;9.35;5.82;;;;;;;;;;4997483;28;20096;-75
2023/11/27 02:16:50;;;;;;;9.60;6.18;;;;;;;;;;4997354;28;20034;-76
2023/11/27 02:19:16;;;;;;;10.98;6.30;;;;;;;;;;5013464;28;20137;-76
2023/11/27 02:21:42;;;;;;;10.25;6.32;;;;;;;;;;4997271;28;20057;-73
2023/11/27 02:24:08;;;;;;;9.52;5.95;;;;;;;;;;4997287;28;20026;-76
2023/11/27 02:26:34;;;;;;;9.18;5.68;;;;;;;;;;4997207;28;20080;-77
2023/11/27 02:28:59;;;;;;;6.97;5.13;;;;;;;;;;4997231;28;20065;-76
2023/11/27 02:31:24;;;;;;;7.22;4.95;;;;;;;;;;5014980;28;20111;-75
2023/11/27 02:33:50;;;;;;;7.53;5.30;;;;;;;;;;4997177;28;20033;-76
2023/11/27 02:36:15;;;;;;;7.07;4.97;;;;;;;;;;4997035;28;20028;-74
2023/11/27 02:38:40;;;;;;;5.68;4.70;;;;;;;;;;4996978;28;20014;-76
2023/11/27 02:41:06;;;;;;;6.75;4.88;;;;;;;;;;5014448;28;20038;-76
2023/11/27 02:43:31;;;;;;;7.05;5.13;;;;;;;;;;5014776;28;20022;-76
2023/11/27 02:45:57;;;;;;;7.82;4.93;;;;;;;;;;4997793;28;20022;-76
2023/11/27 02:48:22;;;;;;;7.03;4.90;;;;;;;;;;5013991;28;20065;-76
2023/11/27 02:50:50;;;;;;;6.85;5.05;;;;;;;;;;4980602;28;20056;-77
2023/11/27 02:53:16;;;;;;;8.82;5.88;;;;;;;;;;4996752;28;20508;-75
2023/11/27 02:55:43;;;;;;;11.27;5.82;;;;;;;;;;4996725;28;20157;-74
2023/11/27 02:58:08;;;;;;;9.20;6.00;;;;;;;;;;4996688;28;20041;-72
2023/11/27 03:00:34;;;;;;;9.18;5.60;;;;;;;;;;5014144;28;20021;-74
2023/11/27 03:02:59;;;;;;;11.40;6.38;;;;;;;;;;5014455;28;20026;-74
2023/11/27 03:05:25;;;;;;;10.45;5.63;;;;;;;;;;5014471;28;20042;-73
2023/11/27 03:07:50;;;;;;;9.40;5.88;;;;;;;;;;4996526;28;20061;-75
2023/11/27 03:10:16;;;;;;;11.02;6.25;;;;;;;;;;5014097;28;20423;-76
2023/11/27 03:12:43;;;;;;;9.57;6.20;;;;;;;;;;4996906;28;20045;-76
2023/11/27 03:15:08;;;;;;;11.60;6.70;;;;;;;;;;5012867;28;20029;-75
2023/11/27 03:17:34;;;;;;;11.88;7.28;;;;;;;;;;5013997;28;20165;-78
2023/11/27 03:19:59;;;;;;;12.00;6.28;;;;;;;;;;5012728;28;20053;-76
2023/11/27 03:22:24;;;;;;;9.98;5.75;;;;;;;;;;5014217;28;20101;-72
2023/11/27 03:24:50;;;;;;;10.10;5.85;;;;;;;;;;4996320;28;20488;-75
2023/11/27 03:27:16;;;;;;;10.98;6.40;;;;;;;;;;4996329;28;20487;-73
2023/11/27 03:29:41;;;;;;;12.27;6.80;;;;;;;;;;5013857;28;20157;-72
2023/11/27 03:32:07;;;;;;;11.13;6.53;;;;;;;;;;4996474;28;20044;-72
2023/11/27 03:34:32;;;;;;;12.40;6.65;;;;;;;;;;5026074;23;20064;-73
2023/11/27 03:36:58;;;;;;;11.68;6.28;;;;;;;;;;5013854;28;20030;-73
2023/11/27 03:39:23;;;;;;;10.18;6.32;;;;;;;;;;4996413;28;20042;-73
2023/11/27 03:41:56;;;;;;;10.77;7.13;;;;;;;;;;4996234;28;20026;-73
2023/11/27 03:44:21;;;;;;;11.13;7.18;;;;;;;;;;4996572;28;20034;-73
2023/11/27 03:46:47;;;;;;;13.27;7.25;;;;;;;;;;4996157;28;20033;-73
2023/11/27 03:49:14;;;;;;;13.07;7.57;;;;;;;;;;5013677;28;20477;-72
2023/11/27 03:51:39;;;;;;;13.07;7.68;;;;;;;;;;5014189;28;20452;-72
2023/11/27 03:54:05;;;;;;;13.07;8.02;;;;;;;;;;5013662;28;20034;-72
2023/11/27 03:56:31;;;;;;;12.43;8.07;;;;;;;;;;5013687;28;20034;-72
2023/11/27 03:58:56;;;;;;;13.60;7.63;;;;;;;;;;4998022;28;20022;-74
2023/11/27 04:01:21;;;;;;;14.90;8.23;;;;;;;;;;5017837;28;20112;-75
2023/11/27 04:03:47;;;;;;;13.70;7.53;;;;;;;;;;5017514;28;20025;-76
2023/11/27 04:06:21;;;;;;;14.32;7.60;;;;;;;;;;5016625;28;20022;-75
2023/11/27 04:08:46;;;;;;;12.52;7.70;;;;;;;;;;5016216;28;20502;-75
2023/11/27 04:11:13;;;;;;;14.90;7.85;;;;;;;;;;4999931;28;20105;-74
2023/11/27 04:13:40;;;;;;;13.70;8.10;;;;;;;;;;5016486;28;20033;-74
2023/11/27 04:16:06;;;;;;;14.18;8.50;;;;;;;;;;4999816;28;20033;-74
2023/11/27 04:18:32;;;;;;;13.88;8.40;;;;;;;;;;5017525;28;20057;-74
2023/11/27 04:20:59;;;;;;;12.65;7.45;;;;;;;;;;5017215;28;20036;-74
2023/11/27 04:23:24;;;;;;;12.27;7.43;;;;;;;;;;5000162;28;20017;-73
2023/11/27 04:25:49;;;;;;;13.70;7.82;;;;;;;;;;4998860;28;20024;-75
2023/11/27 04:28:15;;;;;;;13.13;7.97;;;;;;;;;;4999838;28;20404;-74
2023/11/27 04:30:41;;;;;;;13.43;7.63;;;;;;;;;;5017361;28;20120;-72
2023/11/27 04:33:07;;;;;;;12.30;7.97;;;;;;;;;;5017182;28;20026;-72
2023/11/27 04:35:32;;;;;;;13.32;8.13;;;;;;;;;;4996200;28;20050;-72
2023/11/27 04:37:57;;;;;;;13.68;8.07;;;;;;;;;;4997069;28;20034;-73
2023/11/27 04:40:26;;;;;;;12.35;7.35;;;;;;;;;;4997069;28;20045;-73
2023/11/27 04:42:52;;;;;;;13.60;8.50;;;;;;;;;;4995690;28;20030;-75
2023/11/27 04:45:18;;;;;;;13.13;7.53;;;;;;;;;;4995777;28;20548;-72
2023/11/27 04:47:44;;;;;;;13.20;7.63;;;;;;;;;;4997482;28;20035;-71
2023/11/27 04:50:09;;;;;;;9.32;6.80;;;;;;;;;;4997920;28;20080;-72
2023/11/27 04:52:35;;;;;;;15.25;8.20;;;;;;;;;;4997335;28;20030;-71
2023/11/27 04:55:03;;;;;;;14.43;8.70;;;;;;;;;;4996953;28;20030;-72
2023/11/27 04:57:28;;;;;;;11.02;7.55;;;;;;;;;;4995248;28;20500;-72
2023/11/27 04:59:55;;;;;;;12.80;8.15;;;;;;;;;;4995065;28;20027;-72
2023/11/27 05:02:20;;;;;;;14.13;8.68;;;;;;;;;;4995383;28;20026;-77
2023/11/27 05:04:46;;;;;;;13.50;8.50;;;;;;;;;;4993998;28;20113;-78
2023/11/27 05:07:11;;;;;;;13.70;8.68;;;;;;;;;;4995147;28;20131;-75
2023/11/27 05:09:39;;;;;;;11.88;8.10;;;;;;;;;;4994451;28;20454;-74
2023/11/27 05:12:05;;;;;;;13.90;9.30;;;;;;;;;;4994413;28;20026;-71
2023/11/27 05:14:31;;;;;;;11.85;7.80;;;;;;;;;;4994654;28;20243;-72
2023/11/27 05:16:57;;;;;;;13.85;8.45;;;;;;;;;;4994509;28;20030;-72
2023/11/27 05:19:22;;;;;;;11.77;8.48;;;;;;;;;;4994714;28;20026;-67
2023/11/27 05:21:47;;;;;;;12.73;8.50;;;;;;;;;;4994458;28;20022;-67
2023/11/27 05:24:13;;;;;;;12.55;8.80;;;;;;;;;;4994432;28;20030;-61
2023/11/27 05:26:38;;;;;;;11.77;8.73;;;;;;;;;;4996422;28;20109;-65
2023/11/27 05:29:04;;;;;;;16.10;8.98;;;;;;;;;;4996622;28;20048;-64
2023/11/27 05:31:30;;;;;;;14.05;8.75;;;;;;;;;;4996309;28;20557;-65
2023/11/27 05:33:55;;;;;;;13.20;8.32;;;;;;;;;;4996232;28;20022;-65
2023/11/27 05:36:21;;;;;;;16.30;9.27;;;;;;;;;;5014966;28;20131;-65
2023/11/27 05:38:46;;;;;;;14.68;8.93;;;;;;;;;;5014577;28;20116;-65
2023/11/27 05:41:12;;;;;;;13.73;9.45;;;;;;;;;;5016103;28;20054;-66
2023/11/27 05:43:37;;;;;;;16.02;9.93;;;;;;;;;;5015618;28;20089;-65
2023/11/27 05:46:04;;;;;;;17.92;9.52;;;;;;;;;;5015903;28;20038;-65
2023/11/27 05:48:29;;;;;;;17.48;9.60;;;;;;;;;;5016052;28;20123;-65
2023/11/27 05:50:55;;;;;;;16.33;9.77;;;;;;;;;;5015763;28;20125;-65
2023/11/27 05:53:20;;;;;;;14.07;9.52;;;;;;;;;;5015716;28;20053;-65
2023/11/27 05:55:46;;;;;;;15.07;9.90;;;;;;;;;;5016075;28;20040;-65
2023/11/27 05:58:11;;;;;;;17.67;10.73;;;;;;;;;;4997759;28;20037;-65
2023/11/27 06:00:37;;;;;;;17.25;10.95;;;;;;;;;;5015512;28;20081;-65
2023/11/27 06:03:02;;;;;;;17.02;10.73;;;;;;;;;;5015256;28;20511;-65
2023/11/27 06:05:28;;;;;;;15.00;10.35;;;;;;;;;;5015498;28;20022;-65
2023/11/27 06:07:53;;;;;;;16.20;10.43;;;;;;;;;;5013950;28;20029;-65
2023/11/27 06:10:18;;;;;;;17.00;10.93;;;;;;;;;;5015109;28;20456;-66
2023/11/27 06:12:44;;;;;;;18.63;10.98;;;;;;;;;;5015373;28;20527;-65
2023/11/27 06:15:14;;;;;;;18.10;11.00;;;;;;;;;;5015077;28;20606;-65
2023/11/27 06:17:40;;;;;;;16.15;10.35;;;;;;;;;;5015292;28;20057;-66
2023/11/27 06:20:07;;;;;;;15.82;10.05;;;;;;;;;;5015677;28;20042;-66
2023/11/27 06:22:33;;;;;;;17.40;10.63;;;;;;;;;;5012752;28;20037;-67
2023/11/27 06:24:58;;;;;;;19.52;11.35;;;;;;;;;;5015107;28;20035;-65
2023/11/27 06:27:24;;;;;;;16.85;10.55;;;;;;;;;;5013914;28;20069;-66
2023/11/27 06:29:49;;;;;;;19.35;11.25;;;;;;;;;;4981044;28;20115;-66
2023/11/27 06:32:15;;;;;;;17.48;10.50;;;;;;;;;;5014667;28;20030;-66
2023/11/27 06:34:40;;;;;;;16.23;10.90;;;;;;;;;;5014710;28;20045;-66
2023/11/27 06:37:07;;;;;;;18.50;10.63;;;;;;;;;;5014404;28;20088;-65
2023/11/27 06:39:32;;;;;;;19.05;10.77;;;;;;;;;;5014294;28;20044;-65
2023/11/27 06:41:58;;;;;;;20.73;11.60;;;;;;;;;;5014814;28;20034;-65
2023/11/27 06:44:23;;;;;;;17.38;10.63;;;;;;;;;;5014782;28;20018;-66
2023/11/27 06:46:49;;;;;;;16.73;10.63;;;;;;;;;;5015015;28;20030;-65
2023/11/27 06:49:14;;;;;;;20.20;11.70;;;;;;;;;;5014405;28;20025;-65
2023/11/27 06:51:40;;;;;;;18.77;11.75;;;;;;;;;;5014885;28;20037;-65
2023/11/27 06:54:05;;;;;;;19.58;11.65;;;;;;;;;;5014642;28;20038;-65
2023/11/27 06:56:33;;;;;;;18.67;11.00;;;;;;;;;;5014596;28;20022;-66
2023/11/27 06:59:00;;;;;;;18.75;11.77;;;;;;;;;;5014544;28;20032;-66
2023/11/27 07:01:28;;;;;;;18.65;11.85;;;;;;;;;;5014489;28;20036;-65
2023/11/27 07:03:53;;;;;;;18.48;11.00;;;;;;;;;;4996715;28;20037;-65
2023/11/27 07:06:19;;;;;;;21.55;12.15;;;;;;;;;;5014394;28;20030;-66
2023/11/27 07:08:44;;;;;;;17.63;11.25;;;;;;;;;;4980398;28;20026;-66
2023/11/27 07:11:10;;;;;;;17.73;10.95;;;;;;;;;;4980303;28;20045;-66
2023/11/27 07:13:36;;;;;;;19.23;11.90;;;;;;;;;;5014101;28;20396;-65
2023/11/27 07:16:02;;;;;;;24.65;14.38;;;;;;;;;;5014112;28;20029;-65
2023/11/27 07:18:29;;;;;;;34.13;18.92;;;;;;;;;;4996856;28;20105;-65
2023/11/27 07:20:55;;;;;;;36.08;19.30;;;;;;;;;;5013967;28;20088;-65
2023/11/27 07:23:21;;;;;;;47.60;25.50;;;;;;;;;;5013975;28;20030;-66
2023/11/27 07:25:47;;;;;;;62.05;32.95;;;;;;;;;;5014511;28;20109;-66
2023/11/27 07:28:13;;;;;;;55.83;30.25;;;;;;;;;;5013948;28;20491;-66
2023/11/27 07:30:38;;;;;;;54.67;29.15;;;;;;;;;;5014474;28;20471;-66
2023/11/27 07:33:04;;;;;;;42.88;22.52;;;;;;;;;;5013509;28;20065;-65
2023/11/27 07:35:29;;;;;;;36.20;19.98;;;;;;;;;;4996127;28;20172;-66
2023/11/27 07:37:54;;;;;;;53.90;28.50;;;;;;;;;;5014086;28;20122;-65
2023/11/27 07:40:20;;;;;;;44.58;21.83;;;;;;;;;;5013766;28;20041;-66
2023/11/27 07:42:45;;;;;;;44.47;19.23;;;;;;;;;;5013805;28;20018;-65
2023/11/27 07:45:11;;;;;;;44.83;18.15;;;;;;;;;;5013776;28;20026;-65
2023/11/27 07:47:37;;;;;;;26.48;14.35;;;;;;;;;;4996611;28;20399;-66
2023/11/27 07:50:06;;;;;;;20.38;11.50;;;;;;;;;;4996242;28;20034;-66
2023/11/27 07:52:31;;;;;;;19.75;12.00;;;;;;;;;;5013717;28;20109;-65
2023/11/27 07:54:56;;;;;;;18.67;11.52;;;;;;;;;;5013934;28;20053;-65
2023/11/27 07:57:22;;;;;;;19.75;11.80;;;;;;;;;;5013649;28;20388;-66
2023/11/27 07:59:48;;;;;;;14.93;9.05;;;;;;;;;;5013822;28;20018;-65
2023/11/27 08:02:14;;;;;;;17.70;11.20;;;;;;;;;;5013886;28;20384;-66
2023/11/27 08:04:39;;;;;;;18.95;10.45;;;;;;;;;;5013849;28;20026;-66
2023/11/27 08:07:06;;;;;;;15.07;10.05;;;;;;;;;;4996652;28;20018;-65
2023/11/27 08:09:32;;;;;;;16.75;10.52;;;;;;;;;;5013545;28;20034;-65
2023/11/27 08:11:58;;;;;;;15.65;9.60;;;;;;;;;;5012231;28;20176;-66
2023/11/27 08:14:24;;;;;;;14.88;9.05;;;;;;;;;;5013504;28;20045;-66
2023/11/27 08:16:50;;;;;;;12.75;8.45;;;;;;;;;;5013674;28;20045;-66
2023/11/27 08:19:16;;;;;;;14.63;10.10;;;;;;;;;;5013669;28;20104;-66
2023/11/27 08:21:42;;;;;;;14.80;10.15;;;;;;;;;;5013730;28;20160;-65
2023/11/27 08:24:08;;;;;;;15.38;10.27;;;;;;;;;;5012122;28;20058;-65
2023/11/27 08:26:39;;;;;;;16.02;10.25;;;;;;;;;;5013629;28;20029;-66
2023/11/27 08:29:07;;;;;;;18.92;10.05;;;;;;;;;;5013648;28;20030;-66
2023/11/27 08:31:32;;;;;;;19.50;10.75;;;;;;;;;;5013563;28;20346;-66
2023/11/27 08:33:58;;;;;;;18.25;9.63;;;;;;;;;;5013272;28;20066;-65
2023/11/27 08:36:24;;;;;;;17.80;11.10;;;;;;;;;;5013413;28;20523;-66
2023/11/27 08:38:52;;;;;;;14.35;8.40;;;;;;;;;;4995719;28;20034;-65
2023/11/27 08:41:18;;;;;;;12.20;7.35;;;;;;;;;;5013710;28;20113;-66
2023/11/27 08:43:43;;;;;;;12.50;7.88;;;;;;;;;;5013261;28;20022;-65
2023/11/27 08:46:09;;;;;;;13.85;8.52;;;;;;;;;;4997479;28;20085;-66
2023/11/27 08:48:34;;;;;;;15.98;8.60;;;;;;;;;;5029516;23;20310;-66
2023/11/27 08:51:00;;;;;;;17.48;10.27;;;;;;;;;;5028029;23;20496;-65
2023/11/27 08:53:27;;;;;;;16.13;10.18;;;;;;;;;;5015300;28;20026;-65
2023/11/27 08:55:55;;;;;;;15.57;8.23;;;;;;;;;;5017133;28;20018;-66
2023/11/27 08:58:20;;;;;;;14.02;8.13;;;;;;;;;;5016748;28;20026;-65
2023/11/27 09:00:45;;;;;;;14.60;8.50;;;;;;;;;;5016674;28;20377;-66
2023/11/27 09:03:11;;;;;;;14.88;8.13;;;;;;;;;;5016695;28;20033;-65
2023/11/27 09:05:41;;;;;;;10.52;7.47;;;;;;;;;;5016650;28;20022;-66
2023/11/27 09:08:07;;;;;;;9.90;6.97;;;;;;;;;;5016891;28;20080;-66
2023/11/27 09:10:33;;;;;;;7.47;5.47;;;;;;;;;;5016199;28;20383;-65
2023/11/27 09:12:59;;;;;;;13.52;7.47;;;;;;;;;;5016246;28;20061;-65
2023/11/27 09:15:24;;;;;;;11.35;6.60;;;;;;;;;;5016480;28;20068;-65
2023/11/27 09:17:50;;;;;;;13.60;8.30;;;;;;;;;;5016153;28;20464;-66
2023/11/27 09:20:16;;;;;;;12.13;8.32;;;;;;;;;;5016030;28;20544;-66
2023/11/27 09:22:41;;;;;;;12.98;8.70;;;;;;;;;;5016578;28;20474;-65
2023/11/27 09:25:12;;;;;;;13.68;8.07;;;;;;;;;;5016241;28;20058;-65
2023/11/27 09:27:41;;;;;;;8.23;6.15;;;;;;;;;;5015892;28;20420;-66
2023/11/27 09:30:07;;;;;;;8.35;5.82;;;;;;;;;;5016206;28;20043;-66
2023/11/27 09:32:33;;;;;;;8.13;6.22;;;;;;;;;;5016130;28;20113;-66
2023/11/27 09:34:58;;;;;;;10.82;7.90;;;;;;;;;;5014586;28;20552;-66
2023/11/27 09:37:24;;;;;;;9.52;7.03;;;;;;;;;;4998216;28;20026;-65
2023/11/27 09:39:49;;;;;;;8.43;6.20;;;;;;;;;;5015962;28;20038;-66
2023/11/27 09:42:16;;;;;;;7.18;5.80;;;;;;;;;;5015627;28;20034;-65
2023/11/27 09:44:42;;;;;;;9.20;6.43;;;;;;;;;;4981859;28;20037;-66
2023/11/27 09:47:07;;;;;;;9.65;5.57;;;;;;;;;;5015598;28;20080;-66
2023/11/27 09:49:34;;;;;;;6.47;5.00;;;;;;;;;;5014080;28;20477;-66
2023/11/27 09:52:02;;;;;;;8.75;5.75;;;;;;;;;;5015789;28;20468;-66
2023/11/27 09:54:29;;;;;;;7.65;5.57;;;;;;;;;;5015480;28;20022;-66
2023/11/27 09:56:54;;;;;;;8.52;6.43;;;;;;;;;;5015101;28;20468;-66
2023/11/27 09:59:20;;;;;;;8.90;6.63;;;;;;;;;;5015293;28;20036;-66
2023/11/27 10:01:46;;;;;;;9.70;6.65;;;;;;;;;;5015304;28;20113;-66
2023/11/27 10:04:12;;;;;;;9.70;6.20;;;;;;;;;;5015543;28;20025;-66
2023/11/27 10:06:41;;;;;;;8.70;6.00;;;;;;;;;;4998031;28;20434;-66
2023/11/27 10:09:13;;;;;;;8.32;5.60;;;;;;;;;;5015173;28;20101;-65
2023/11/27 10:11:39;;;;;;;8.77;5.05;;;;;;;;;;5013901;28;20033;-66
2023/11/27 10:14:05;;;;;;;5.47;3.83;;;;;;;;;;5015381;28;20367;-66
2023/11/27 10:16:31;;;;;;;5.90;4.07;;;;;;;;;;5015621;28;20080;-66
2023/11/27 10:19:05;;;;;;;4.90;4.00;;;;;;;;;;5015174;28;20068;-66
2023/11/27 10:21:31;;;;;;;5.13;4.03;;;;;;;;;;5015321;28;20057;-66
2023/11/27 10:24:01;;;;;;;6.68;4.47;;;;;;;;;;5015215;28;20072;-66
2023/11/27 10:26:28;;;;;;;5.93;4.32;;;;;;;;;;5014899;28;20422;-65
2023/11/27 10:28:53;;;;;;;5.57;4.53;;;;;;;;;;5014218;28;20350;-66
2023/11/27 10:31:19;;;;;;;8.15;4.68;;;;;;;;;;5014737;28;20037;-66
2023/11/27 10:33:45;;;;;;;6.32;4.47;;;;;;;;;;5014723;28;20450;-66
2023/11/27 10:36:11;;;;;;;9.35;5.22;;;;;;;;;;5014707;28;20237;-66
2023/11/27 10:38:37;;;;;;;8.55;5.25;;;;;;;;;;5014959;28;20116;-66
2023/11/27 10:41:05;;;;;;;6.13;4.30;;;;;;;;;;5014760;28;20022;-66
2023/11/27 10:43:32;;;;;;;8.80;5.18;;;;;;;;;;5014865;28;20033;-66
2023/11/27 10:45:58;;;;;;;6.35;4.25;;;;;;;;;;5014837;28;20018;-65
2023/11/27 10:48:24;;;;;;;4.30;3.78;;;;;;;;;;5014492;28;20097;-66
2023/11/27 10:50:51;;;;;;;6.10;4.32;;;;;;;;;;5014289;28;20404;-65
2023/11/27 10:53:19;;;;;;;6.07;5.22;;;;;;;;;;5014707;28;20057;-66
2023/11/27 10:55:45;;;;;;;7.13;5.15;;;;;;;;;;5013661;28;20026;-66
2023/11/27 10:58:11;;;;;;;4.75;3.65;;;;;;;;;;5014641;28;20474;-66
2023/11/27 11:00:46;;;;;;;4.72;3.58;;;;;;;;;;5014305;28;20033;-66
2023/11/27 11:03:14;;;;;;;6.70;3.55;;;;;;;;;;5013026;28;20117;-65
2023/11/27 11:05:50;;;;;;;8.15;4.55;;;;;;;;;;4997314;28;20080;-65
2023/11/27 11:08:17;;;;;;;5.72;3.53;;;;;;;;;;5013875;28;20030;-65
2023/11/27 11:10:43;;;;;;;4.28;3.50;;;;;;;;;;5012949;28;20026;-65
2023/11/27 11:13:12;;;;;;;5.45;3.75;;;;;;;;;;4997647;28;20041;-65
2023/11/27 11:15:44;;;;;;;5.50;3.90;;;;;;;;;;5014116;28;20033;-65
2023/11/27 11:18:21;;;;;;;4.38;2.88;;;;;;;;;;5012925;28;20061;-66
2023/11/27 11:20:57;;;;;;;4.03;3.63;;;;;;;;;;5013947;28;20040;-66
2023/11/27 11:23:28;;;;;;;4.00;3.10;;;;;;;;;;5014552;28;20154;-65
2023/11/27 11:26:21;;;;;;;4.32;3.50;;;;;;;;;;5012662;28;20022;-66
2023/11/27 11:28:49;;;;;;;3.83;3.05;;;;;;;;;;5014539;28;20030;-65
2023/11/27 11:31:18;;;;;;;6.47;4.28;;;;;;;;;;5014188;28;20349;-66
2023/11/27 11:33:44;;;;;;;4.10;3.28;;;;;;;;;;5013898;28;20468;-65
2023/11/27 11:36:13;;;;;;;6.05;4.32;;;;;;;;;;5013898;28;20068;-65
2023/11/27 11:38:50;;;;;;;7.43;4.45;;;;;;;;;;5012627;28;20034;-66
2023/11/27 11:41:17;;;;;;;6.68;4.45;;;;;;;;;;4996757;28;20500;-65
2023/11/27 11:43:45;;;;;;;7.68;5.25;;;;;;;;;;5013808;28;20482;-65
2023/11/27 11:46:14;;;;;;;10.25;6.38;;;;;;;;;;5014065;28;20052;-65
2023/11/27 11:48:40;;;;;;;12.07;6.43;;;;;;;;;;5014032;28;20364;-66
2023/11/27 11:51:15;;;;;;;9.43;6.30;;;;;;;;;;5013834;28;20050;-65
2023/11/27 11:53:42;;;;;;;12.10;6.47;;;;;;;;;;5013991;28;20038;-65
2023/11/27 11:56:22;;;;;;;16.55;7.47;;;;;;;;;;5012453;28;20030;-66
2023/11/27 11:59:11;;;;;;;9.85;6.18;;;;;;;;;;5012649;28;20042;-66
2023/11/27 12:01:40;;;;;;;11.65;6.82;;;;;;;;;;5013824;28;20037;-65
2023/11/27 12:04:08;;;;;;;13.40;6.53;;;;;;;;;;5013912;28;20045;-65
2023/11/27 12:06:33;;;;;;;9.05;6.20;;;;;;;;;;5013605;28;20029;-65
2023/11/27 12:09:00;;;;;;;9.90;6.10;;;;;;;;;;5014343;28;20069;-66
2023/11/27 12:11:31;;;;;;;8.77;5.85;;;;;;;;;;5013791;28;20476;-65
2023/11/27 12:13:56;;;;;;;;;;;;;;;;;;5014244;28;20043;-65
2023/11/27 12:16:22;;;;;;;10.25;6.13;;;;;;;;;;5012352;28;19909;-66
2023/11/27 12:18:49;;;;;;;8.82;6.25;;;;;;;;;;4996020;28;20124;-65
2023/11/27 12:21:16;;;;;;;10.02;6.97;;;;;;;;;;5017154;28;20109;-65
2023/11/27 12:23:47;;;;;;;11.05;6.20;;;;;;;;;;5015914;28;20053;-66
2023/11/27 12:26:17;;;;;;;14.10;6.75;;;;;;;;;;5017363;28;20065;-66
2023/11/27 12:28:46;;;;;;;10.30;5.97;;;;;;;;;;5017374;28;20029;-66
2023/11/27 12:31:14;;;;;;;7.90;5.43;;;;;;;;;;4999902;28;20261;-66
2023/11/27 12:33:40;;;;;;;9.30;6.18;;;;;;;;;;5017253;28;20042;-66
2023/11/27 12:36:06;;;;;;;11.60;7.10;;;;;;;;;;5017483;28;20095;-65
2023/11/27 12:38:31;;;;;;;11.95;6.47;;;;;;;;;;5017194;28;20038;-65
2023/11/27 12:41:03;;;;;;;9.15;5.60;;;;;;;;;;4999578;28;20038;-65
2023/11/27 12:43:32;;;;;;;12.07;6.35;;;;;;;;;;5016766;28;20080;-66
2023/11/27 12:45:58;;;;;;;11.13;6.35;;;;;;;;;;5016889;28;20058;-65
2023/11/27 12:48:24;;;;;;;10.45;6.50;;;;;;;;;;5016699;28;20054;-65
2023/11/27 12:50:54;;;;;;;7.00;5.03;;;;;;;;;;5016673;28;20088;-65
2023/11/27 12:53:21;;;;;;;;;;;;;;;;;;5017117;28;20030;-65
2023/11/27 12:55:48;;;;;;;7.60;5.28;;;;;;;;;;5017221;28;19909;-65
2023/11/27 12:58:17;;;;;;;10.95;6.85;;;;;;;;;;5016847;28;20464;-65
2023/11/27 13:00:45;;;;;;;13.68;7.70;;;;;;;;;;5016450;28;20125;-65
2023/11/27 13:03:14;;;;;;;14.82;7.60;;;;;;;;;;5016764;28;20384;-65
2023/11/27 13:05:41;;;;;;;11.30;7.72;;;;;;;;;;5016406;28;20109;-65
2023/11/27 13:08:06;;;;;;;12.93;7.05;;;;;;;;;;5016649;28;20464;-66
2023/11/27 13:10:41;;;;;;;11.10;7.20;;;;;;;;;;5016557;28;20060;-65
2023/11/27 13:13:08;;;;;;;9.88;7.38;;;;;;;;;;4998579;28;20033;-65
2023/11/27 13:15:34;;;;;;;11.50;7.50;;;;;;;;;;4997571;28;20062;-65
2023/11/27 13:18:02;;;;;;;17.63;9.98;;;;;;;;;;5004374;28;20540;-67
2023/11/27 13:20:28;;;;;;;9.98;7.28;;;;;;;;;;4996406;28;20473;-65
2023/11/27 13:22:54;;;;;;;14.00;8.95;;;;;;;;;;4978620;28;20121;-71
2023/11/27 13:25:23;;;;;;;14.75;9.90;;;;;;;;;;4995558;28;20142;-71
2023/11/27 13:27:49;;;;;;;12.38;8.60;;;;;;;;;;4978502;28;20030;-71
2023/11/27 13:30:28;;;;;;;12.90;8.68;;;;;;;;;;4996055;28;20038;-71
2023/11/27 13:32:58;;;;;;;13.50;9.07;;;;;;;;;;4977692;28;20048;-71
2023/11/27 13:35:32;;;;;;;14.20;9.25;;;;;;;;;;4995978;28;20035;-70
2023/11/27 13:38:00;;;;;;;17.17;10.25;;;;;;;;;;4995991;28;20432;-71
2023/11/27 13:40:31;;;;;;;16.95;10.40;;;;;;;;;;4995666;28;20488;-73
2023/11/27 14:03:11;;;;;;;15.10;9.25;;;;;;;;;;4984530;28;20519;-69
2023/11/27 14:05:37;;;;;;;15.52;9.57;;;;;;;;;;4976116;28;20469;-69
2023/11/27 14:08:03;;;;;;;15.90;9.70;;;;;;;;;;4974358;28;20489;-69
2023/11/27 14:10:54;;;;;;;15.55;9.90;;;;;;;;;;4958683;28;20066;-69
2023/11/27 14:13:16;;;;;;;17.05;10.25;;;;;;;;;;4972305;28;20039;-69
2023/11/27 14:15:47;;;;;;;16.95;10.52;;;;;;;;;;4974315;28;20018;-69
2023/11/27 14:20:46;;;;;;;54.63;30.13;;;;;;;;;;4973839;28;20041;-69
2023/11/27 14:23:59;;;;;;;80.10;45.35;;;;;;;;;;4973914;28;20118;-69
2023/11/27 14:31:12;;;;;;;80.07;42.05;;;;;;;;;;4973805;28;20132;-69
2023/11/27 14:33:41;;;;;;;69.47;38.15;;;;;;;;;;4958249;28;20051;-69
2023/11/27 14:36:11;;;;;;;48.85;28.35;;;;;;;;;;4975589;28;20039;-68
2023/11/27 14:38:40;;;;;;;40.63;25.52;;;;;;;;;;4975158;28;20037;-68
2023/11/27 14:41:09;;;;;;;98.40;52.23;;;;;;;;;;4974064;28;20474;-68
2023/11/27 14:43:35;;;;;;;37.58;20.98;;;;;;;;;;4972938;28;20319;-68
2023/11/27 14:46:01;;;;;;;24.25;17.80;;;;;;;;;;4975363;28;20485;-69
2023/11/27 14:48:32;;;;;;;26.63;19.13;;;;;;;;;;4975115;28;20050;-69
2023/11/27 14:50:59;;;;;;;32.22;20.95;;;;;;;;;;4975069;28;20027;-69
2023/11/27 14:53:24;;;;;;;25.15;17.98;;;;;;;;;;4975510;28;20038;-70
2023/11/27 14:55:53;;;;;;;25.15;15.77;;;;;;;;;;4975022;28;20078;-70